createdAt,value
2019-04-05T00:01:26.291Z,90.32
2019-04-05T00:04:03.534Z,82.47
2019-04-05T00:06:37.289Z,101.23
2019-04-05T00:09:11.719Z,89.97
2019-04-05T00:14:19.339Z,90.35
2019-04-05T00:16:53.746Z,89.40
2019-04-05T00:19:28.122Z,97.43
2019-04-05T00:22:02.799Z,90.73
2019-04-05T00:27:10.295Z,89.35
2019-04-05T00:29:44.838Z,87.45
2019-04-05T00:32:19.144Z,83.40
2019-04-05T00:34:53.714Z,93.35
2019-04-05T00:37:28.362Z,88.10
2019-04-05T00:40:02.767Z,83.25
2019-04-05T00:42:37.289Z,104.60
2019-04-05T00:45:11.913Z,88.80
2019-04-05T00:50:19.784Z,92.78
2019-04-05T00:52:54.123Z,88.33
2019-04-05T00:55:28.888Z,88.53
2019-04-05T00:58:03.303Z,89.00
2019-04-05T01:00:38.300Z,92.27
2019-04-05T01:03:13.311Z,83.23
2019-04-05T01:05:48.277Z,98.00
2019-04-05T01:08:23.295Z,80.23
2019-04-05T01:10:57.712Z,90.80
2019-04-05T01:13:32.374Z,94.30
2019-04-05T01:16:07.098Z,91.95
2019-04-05T01:18:41.520Z,87.97
2019-04-05T01:21:20.786Z,92.62
2019-04-05T01:23:57.368Z,84.90
2019-04-05T01:26:32.707Z,98.35
2019-04-05T01:29:07.291Z,79.00
2019-04-05T01:31:41.922Z,79.60
2019-04-05T01:36:48.967Z,77.47
2019-04-05T01:39:23.278Z,80.20
2019-04-05T01:41:57.884Z,100.87
2019-04-05T01:47:05.340Z,75.35
2019-04-05T01:49:41.302Z,77.43
2019-04-05T01:52:15.731Z,83.30
2019-04-05T01:54:50.141Z,86.17
2019-04-05T01:58:53.652Z,71.60
2019-04-05T02:01:28.114Z,78.53
2019-04-05T02:04:03.143Z,76.10
2019-04-05T02:06:37.719Z,83.27
2019-04-05T02:11:47.961Z,81.35
2019-04-05T02:14:22.339Z,74.80
2019-04-05T02:16:56.739Z,71.67
2019-04-05T02:19:31.315Z,74.35
2019-04-05T02:22:05.961Z,79.20
2019-04-05T02:27:13.121Z,71.30
2019-04-05T02:29:47.665Z,77.87
2019-04-05T02:32:22.135Z,82.97
2019-04-05T02:34:56.803Z,78.27
2019-04-05T02:45:12.085Z,78.60
2019-04-05T02:47:52.085Z,77.10
2019-04-05T02:50:30.753Z,78.20
2019-04-05T02:55:42.740Z,81.33
2019-04-05T02:58:17.708Z,81.30
2019-04-05T03:03:25.709Z,73.67
2019-04-05T03:08:33.251Z,70.90
2019-04-05T03:11:17.731Z,81.03
2019-04-05T03:16:40.870Z,78.33
2019-04-05T03:19:24.689Z,75.97
2019-04-05T03:24:42.300Z,82.62
2019-04-05T03:27:27.662Z,70.77
2019-04-05T03:30:02.495Z,71.15
2019-04-05T03:32:37.284Z,72.67
2019-04-05T03:35:12.278Z,76.60
2019-04-05T03:37:47.668Z,68.90
2019-04-05T03:40:22.339Z,69.17
2019-04-05T03:42:57.583Z,71.37
2019-04-05T03:45:32.309Z,70.17
2019-04-05T03:48:08.675Z,72.43
2019-04-05T03:53:18.493Z,72.87
2019-04-05T03:55:54.328Z,69.63
2019-04-05T03:58:28.885Z,71.75
2019-04-05T04:01:03.696Z,71.50
2019-04-05T04:08:30.263Z,70.32
2019-04-05T04:11:04.731Z,69.22
2019-04-05T04:13:39.071Z,68.90
2019-04-05T04:16:13.863Z,68.20
2019-04-05T04:18:48.688Z,66.75
2019-04-05T04:21:59.282Z,70.97
2019-04-05T04:24:34.843Z,67.92
2019-04-05T04:27:09.904Z,67.42
2019-04-05T04:34:50.878Z,71.33
2019-04-05T04:39:58.269Z,81.87
2019-04-05T04:42:32.653Z,78.63
2019-04-05T04:45:12.471Z,79.03
2019-04-05T04:47:46.527Z,75.62
2019-04-05T04:50:21.412Z,77.75
2019-04-05T04:52:56.304Z,78.53
2019-04-05T04:55:30.878Z,82.50
2019-04-05T05:00:38.327Z,75.28
2019-04-05T05:03:13.140Z,82.47
2019-04-05T05:05:47.700Z,80.73
2019-04-05T05:08:22.116Z,72.35
2019-04-05T05:10:56.752Z,88.60
2019-04-05T05:13:31.304Z,74.90
2019-04-05T05:16:06.267Z,71.20
2019-04-05T05:18:40.860Z,83.35
2019-04-05T05:23:48.460Z,71.12
2019-04-05T05:26:23.253Z,71.33
2019-04-05T05:28:57.702Z,72.70
2019-04-05T05:34:04.944Z,71.02
2019-04-05T05:36:39.273Z,70.30
2019-04-05T05:39:13.710Z,68.40
2019-04-05T05:41:48.097Z,78.37
2019-04-05T05:44:22.715Z,70.05
2019-04-05T05:46:57.086Z,71.60
2019-04-05T05:49:32.941Z,72.35
2019-04-05T05:52:07.682Z,74.07
2019-04-05T05:54:42.128Z,79.90
2019-04-05T05:57:16.660Z,80.47
2019-04-05T05:59:50.944Z,75.45
2019-04-05T06:02:25.276Z,86.28
2019-04-05T06:04:59.720Z,72.03
2019-04-05T06:07:34.080Z,74.17
2019-04-05T06:10:09.619Z,71.97
2019-04-05T06:12:44.043Z,78.10
2019-04-05T06:15:18.290Z,72.62
2019-04-05T06:18:04.205Z,69.83
2019-04-05T06:20:30.279Z,76.93
2019-04-05T06:23:04.675Z,67.23
2019-04-05T06:25:39.292Z,67.20
2019-04-05T06:28:13.735Z,66.10
2019-04-05T06:30:48.265Z,74.50
2019-04-05T06:33:31.282Z,66.57
2019-04-05T06:36:00.133Z,68.83
2019-04-05T06:38:34.664Z,64.37
2019-04-05T06:41:09.272Z,67.13
2019-04-05T06:43:44.634Z,69.42
2019-04-05T06:46:18.934Z,70.28
2019-04-05T06:51:25.941Z,78.57
2019-04-05T06:54:03.166Z,72.90
2019-04-05T06:56:38.267Z,72.20
2019-04-05T06:59:12.911Z,73.00
2019-04-05T07:01:47.677Z,74.22
2019-04-05T07:04:22.284Z,73.28
2019-04-05T07:06:56.697Z,72.08
2019-04-05T07:09:33.920Z,67.72
2019-04-05T07:12:07.093Z,65.40
2019-04-05T07:14:41.617Z,71.50
2019-04-05T07:17:15.935Z,77.20
2019-04-05T07:22:36.976Z,67.55
2019-04-05T07:24:59.595Z,70.10
2019-04-05T07:27:33.930Z,75.67
2019-04-05T07:30:08.652Z,71.17
2019-04-05T07:32:43.082Z,75.73
2019-04-05T07:35:17.318Z,74.58
2019-04-05T07:39:36.635Z,79.72
2019-04-05T07:42:10.934Z,84.20
2019-04-05T07:47:17.931Z,81.15
2019-04-05T07:49:52.266Z,73.83
2019-04-05T07:52:26.693Z,74.93
2019-04-05T07:55:01.019Z,74.43
2019-04-05T08:01:20.661Z,79.92
2019-04-05T08:03:57.928Z,74.07
2019-04-05T08:06:33.335Z,87.40
2019-04-05T08:09:15.275Z,79.73
2019-04-05T08:11:50.785Z,77.27
2019-04-05T08:16:58.710Z,73.60
2019-04-05T08:19:32.934Z,78.43
2019-04-05T08:22:07.400Z,85.83
2019-04-05T08:24:41.939Z,79.60
2019-04-05T08:27:16.442Z,82.40
2019-04-05T08:29:50.874Z,83.15
2019-04-05T08:32:25.101Z,79.30
2019-04-05T08:34:59.293Z,81.97
2019-04-05T08:37:33.882Z,88.00
2019-04-05T08:40:08.299Z,113.50
2019-04-05T08:42:42.661Z,84.87
2019-04-05T08:45:17.335Z,80.47
2019-04-05T08:47:51.711Z,82.50
2019-04-05T08:50:26.050Z,82.93
2019-04-05T08:53:01.247Z,78.07
2019-04-05T08:55:35.891Z,75.57
2019-04-05T08:58:10.115Z,77.85
2019-04-05T09:00:44.568Z,87.53
2019-04-05T09:03:18.941Z,77.72
2019-04-05T09:05:53.268Z,76.13
2019-04-05T09:08:28.132Z,80.30
2019-04-05T09:11:02.751Z,72.77
2019-04-05T09:13:37.275Z,75.50
2019-04-05T09:16:11.959Z,87.72
2019-04-05T09:19:23.351Z,85.60
2019-04-05T09:21:53.850Z,79.82
2019-04-05T09:27:01.300Z,81.60
2019-04-05T09:29:35.793Z,81.67
2019-04-05T09:34:42.896Z,84.00
2019-04-05T09:37:17.118Z,80.20
2019-04-05T09:39:51.624Z,83.33
2019-04-05T09:42:25.901Z,75.90
2019-04-05T09:45:00.275Z,75.87
2019-04-05T09:47:34.744Z,75.90
2019-04-05T09:50:09.268Z,73.97
2019-04-05T09:52:43.890Z,77.42
2019-04-05T09:55:18.275Z,85.12
2019-04-05T09:57:52.710Z,72.85
2019-04-05T10:00:28.442Z,62.63
2019-04-05T10:03:02.884Z,62.53
2019-04-05T10:05:37.069Z,64.15
2019-04-05T10:08:11.763Z,60.63
2019-04-05T10:13:19.102Z,71.10
2019-04-05T10:17:06.680Z,66.37
2019-04-05T10:19:49.858Z,63.07
2019-04-05T10:24:49.948Z,64.17
2019-04-05T10:27:24.121Z,65.78
2019-04-05T10:29:58.331Z,62.77
2019-04-05T10:32:32.679Z,70.72
2019-04-05T10:35:07.542Z,63.30
2019-04-05T10:37:41.945Z,66.50
2019-04-05T10:40:16.689Z,59.43
2019-04-05T10:42:50.945Z,65.37
2019-04-05T10:45:25.280Z,63.63
2019-04-05T10:47:59.856Z,61.97
2019-04-05T10:50:34.224Z,65.30
2019-04-05T10:53:08.762Z,58.73
2019-04-05T10:58:15.919Z,59.18
2019-04-05T11:00:51.644Z,57.17
2019-04-05T11:03:25.952Z,59.20
2019-04-05T11:06:00.141Z,55.90
2019-04-05T11:08:34.670Z,60.27
2019-04-05T11:13:41.892Z,56.85
2019-04-05T11:16:17.277Z,58.87
2019-04-05T11:18:51.682Z,58.97
2019-04-05T11:21:26.107Z,59.30
2019-04-05T11:24:00.624Z,60.27
2019-04-05T11:26:35.272Z,62.17
2019-04-05T11:29:09.679Z,54.63
2019-04-05T11:31:56.412Z,62.10
2019-04-05T11:34:20.884Z,67.10
2019-04-05T11:36:55.327Z,56.70
2019-04-05T11:39:30.374Z,60.80
2019-04-05T11:42:06.317Z,55.60
2019-04-05T11:44:43.298Z,63.87
2019-04-05T11:47:19.388Z,57.03
2019-04-05T11:49:55.236Z,54.67
2019-04-05T11:52:30.281Z,58.35
2019-04-05T11:55:04.783Z,59.20
2019-04-05T11:57:41.073Z,53.75
2019-04-05T12:00:21.675Z,54.43
2019-04-05T12:03:01.971Z,55.23
2019-04-05T12:08:09.290Z,60.58
2019-04-05T12:10:43.729Z,52.47
2019-04-05T12:13:18.796Z,59.43
2019-04-05T12:18:25.919Z,53.10
2019-04-05T12:21:00.855Z,55.43
2019-04-05T12:23:36.344Z,60.93
2019-04-05T12:26:10.729Z,56.77
2019-04-05T12:33:52.537Z,59.20
2019-04-05T12:36:26.944Z,62.75
2019-04-05T12:39:01.607Z,56.35
2019-04-05T12:41:40.402Z,65.93
2019-04-05T12:44:15.148Z,60.27
2019-04-05T12:46:49.315Z,57.33
2019-04-05T12:49:23.757Z,66.37
2019-04-05T12:54:30.942Z,61.20
2019-04-05T12:57:05.117Z,57.33
2019-04-05T12:59:39.674Z,57.07
2019-04-05T13:02:19.060Z,68.80
2019-04-05T13:04:50.873Z,66.53
2019-04-05T13:07:25.268Z,74.07
2019-04-05T13:09:59.720Z,66.22
2019-04-05T13:12:33.942Z,68.67
2019-04-05T13:15:12.940Z,70.50
2019-04-05T13:17:44.729Z,65.27
2019-04-05T13:20:19.300Z,61.70
2019-04-05T13:22:53.697Z,66.47
2019-04-05T13:25:28.089Z,65.10
2019-04-05T13:28:12.719Z,64.07
2019-04-05T13:30:38.898Z,60.27
2019-04-05T13:33:13.274Z,62.13
2019-04-05T13:35:47.746Z,61.65
2019-04-05T13:38:21.941Z,64.60
2019-04-05T13:40:57.118Z,59.83
2019-04-05T13:43:32.622Z,61.17
2019-04-05T13:46:07.257Z,87.50
2019-04-05T13:48:41.765Z,90.83
2019-04-05T13:53:50.736Z,60.63
2019-04-05T13:56:25.118Z,67.97
2019-04-05T13:58:59.296Z,60.27
2019-04-05T14:01:33.696Z,62.47
2019-04-05T14:06:33.647Z,60.83
2019-04-05T14:09:10.485Z,71.03
2019-04-05T14:11:45.315Z,61.90
2019-04-05T14:14:19.703Z,66.35
2019-04-05T14:21:26.694Z,64.90
2019-04-05T14:26:34.322Z,63.85
2019-04-05T14:29:08.970Z,62.97
2019-04-05T14:31:43.315Z,63.33
2019-04-05T14:34:18.550Z,69.22
2019-04-05T14:36:53.255Z,65.07
2019-04-05T14:39:27.739Z,65.73
2019-04-05T14:44:36.946Z,63.03
2019-04-05T14:47:11.336Z,67.33
2019-04-05T14:49:46.077Z,59.50
2019-04-05T14:52:20.701Z,62.27
2019-04-05T14:54:55.281Z,63.27
2019-04-05T14:57:29.888Z,66.83
2019-04-05T15:00:04.522Z,65.28
2019-04-05T15:02:39.277Z,63.13
2019-04-05T15:05:13.943Z,61.37
2019-04-05T15:07:50.794Z,63.13
2019-04-05T15:10:26.193Z,58.60
2019-04-05T15:13:01.225Z,64.50
2019-04-05T15:15:36.259Z,62.47
2019-04-05T15:18:11.962Z,59.13
2019-04-05T15:20:46.870Z,60.87
2019-04-05T15:23:21.270Z,64.30
2019-04-05T15:25:55.887Z,55.70
2019-04-05T15:31:04.277Z,59.30
2019-04-05T15:33:39.606Z,57.78
2019-04-05T15:36:17.056Z,61.27
2019-04-05T15:38:52.712Z,60.07
2019-04-05T15:49:06.074Z,62.50
2019-04-05T15:51:41.755Z,63.10
2019-04-05T15:56:49.102Z,61.37
2019-04-05T15:59:23.698Z,61.40
2019-04-05T16:01:58.268Z,62.10
2019-04-05T16:04:32.693Z,70.47
2019-04-05T16:07:07.408Z,60.80
2019-04-05T16:09:41.937Z,58.67
2019-04-05T16:12:16.272Z,65.97
2019-04-05T16:14:51.890Z,85.30
2019-04-05T16:17:26.273Z,81.10
2019-04-05T16:20:00.880Z,64.73
2019-04-05T16:25:10.577Z,64.45
2019-04-05T16:27:45.260Z,61.55
2019-04-05T16:30:19.712Z,65.67
2019-04-05T16:35:26.938Z,61.03
2019-04-05T16:38:01.628Z,66.17
2019-04-05T16:40:36.096Z,62.65
2019-04-05T16:43:10.642Z,69.47
2019-04-05T16:45:44.950Z,62.70
2019-04-05T16:48:19.295Z,61.23
2019-04-05T16:50:53.929Z,61.77
2019-04-05T16:53:28.327Z,64.65
2019-04-05T16:56:02.947Z,67.10
2019-04-05T16:58:37.286Z,55.07
2019-04-05T17:01:11.940Z,59.03
2019-04-05T17:06:19.144Z,59.50
2019-04-05T17:08:53.800Z,59.80
2019-04-05T17:11:27.940Z,60.70
2019-04-05T17:16:35.337Z,65.63
2019-04-05T17:19:09.878Z,57.00
2019-04-05T17:21:44.277Z,57.93
2019-04-05T17:24:18.761Z,56.90
2019-04-05T17:29:26.273Z,61.13
2019-04-05T17:32:00.746Z,60.43
2019-04-05T17:34:34.944Z,61.70
2019-04-05T17:37:09.273Z,60.40
2019-04-05T17:39:43.677Z,60.23
2019-04-05T17:44:50.948Z,58.20
2019-04-05T17:47:25.296Z,61.90
2019-04-05T17:49:59.921Z,62.93
2019-04-05T17:52:34.615Z,63.30
2019-04-05T17:55:10.072Z,54.23
2019-04-05T17:57:44.865Z,58.20
2019-04-05T18:02:56.919Z,60.85
2019-04-05T18:05:31.278Z,58.40
2019-04-05T18:08:05.722Z,58.83
2019-04-05T18:13:12.942Z,56.35
2019-04-05T18:15:52.720Z,59.10
2019-04-05T18:18:23.654Z,64.30
2019-04-05T18:20:58.119Z,58.87
2019-04-05T18:23:32.754Z,64.80
2019-04-05T18:26:07.271Z,60.60
2019-04-05T18:28:41.793Z,60.90
2019-04-05T18:36:25.281Z,62.23
2019-04-05T18:39:00.077Z,61.13
2019-04-05T18:44:08.269Z,61.33
2019-04-05T18:46:42.889Z,64.13
2019-04-05T18:49:17.650Z,58.95
2019-04-05T18:51:52.281Z,61.95
2019-04-05T18:54:26.693Z,64.65
2019-04-05T18:57:01.310Z,58.27
2019-04-05T18:59:35.855Z,62.67
2019-04-05T19:04:43.944Z,65.77
2019-04-05T19:07:18.335Z,63.90
2019-04-05T19:09:53.508Z,63.17
2019-04-05T19:12:27.977Z,55.88
2019-04-05T19:15:02.466Z,59.30
2019-04-05T19:17:36.917Z,59.40
2019-04-05T19:20:11.941Z,61.08
2019-04-05T19:22:47.660Z,63.57
2019-04-05T19:25:22.114Z,62.77
2019-04-05T19:27:57.138Z,56.10
2019-04-05T19:48:44.277Z,62.47
2019-04-05T19:51:18.954Z,63.13
2019-04-05T19:56:28.295Z,67.75
2019-04-05T19:59:02.751Z,70.75
2019-04-05T20:04:10.198Z,64.63
2019-04-05T20:06:44.786Z,70.12
2019-04-05T20:11:52.651Z,72.30
2019-04-05T20:14:27.055Z,68.23
2019-04-05T20:17:01.672Z,67.78
2019-04-05T20:19:36.301Z,71.97
2019-04-05T20:22:11.535Z,70.97
2019-04-05T20:24:46.786Z,59.08
2019-04-05T20:27:21.442Z,63.83
2019-04-05T20:29:56.280Z,65.57
2019-04-05T20:32:30.747Z,62.43
2019-04-05T20:37:40.059Z,70.12
2019-04-05T20:40:14.704Z,64.93
2019-04-05T20:47:55.486Z,56.57
2019-04-05T20:50:30.289Z,63.40
2019-04-05T20:53:04.786Z,63.40
2019-04-05T20:55:39.280Z,65.30
2019-04-05T20:58:14.150Z,66.30
2019-04-05T21:00:48.743Z,62.80
2019-04-05T21:05:56.644Z,62.77
2019-04-05T21:08:31.985Z,57.20
2019-04-05T21:11:06.749Z,67.93
2019-04-05T21:16:15.299Z,68.07
2019-04-05T21:18:50.293Z,60.17
2019-04-05T21:21:25.291Z,62.27
2019-04-05T21:24:01.281Z,69.70
2019-04-05T21:26:35.968Z,58.90
2019-04-05T21:29:10.971Z,71.77
2019-04-05T21:31:45.901Z,61.97
2019-04-05T21:34:20.450Z,62.67
2019-04-05T21:36:55.943Z,62.90
2019-04-05T21:39:30.683Z,61.23
2019-04-05T21:44:38.674Z,58.87
2019-04-05T21:49:46.782Z,59.13
2019-04-05T21:52:21.436Z,71.27
2019-04-05T21:54:56.314Z,64.40
2019-04-05T21:57:31.291Z,59.45
2019-04-05T22:00:08.269Z,69.60
2019-04-05T22:02:43.266Z,65.90
2019-04-05T22:05:18.316Z,74.30
2019-04-05T22:07:53.300Z,69.97
2019-04-05T22:10:28.292Z,69.10
2019-04-05T22:13:04.536Z,69.37
2019-04-05T22:20:39.754Z,64.67
2019-04-05T22:25:48.503Z,64.60
2019-04-05T22:28:23.304Z,66.22
2019-04-05T22:30:57.991Z,68.07
2019-04-05T22:33:33.081Z,69.40
2019-04-05T22:36:07.836Z,70.00
2019-04-05T22:41:15.714Z,69.63
2019-04-05T22:46:23.731Z,64.55
2019-04-05T22:48:58.544Z,76.90
2019-04-05T22:51:33.569Z,70.10
2019-04-05T22:54:08.149Z,70.90
2019-04-05T22:57:50.740Z,65.83
2019-04-05T23:00:26.039Z,71.50
2019-04-05T23:03:01.136Z,70.42
2019-04-05T23:05:36.154Z,66.65
2019-04-05T23:08:11.818Z,70.97
2019-04-05T23:10:46.292Z,73.30
2019-04-05T23:13:20.789Z,67.00
2019-04-05T23:18:28.300Z,61.53
2019-04-05T23:21:02.951Z,72.13
2019-04-05T23:23:37.741Z,65.30
2019-04-05T23:26:12.305Z,59.25
2019-04-05T23:28:46.951Z,61.70
2019-04-05T23:31:21.696Z,65.70
2019-04-05T23:41:36.976Z,54.47
2019-04-05T23:44:11.967Z,49.90
2019-04-05T23:46:46.373Z,53.67
2019-04-05T23:49:21.175Z,48.10
2019-04-05T23:51:55.748Z,52.88
2019-04-05T23:54:30.307Z,58.90
2019-04-05T23:57:05.205Z,59.00
2019-04-05T23:59:39.781Z,62.77
